sensor_id;sensor_type;location;lat;lon;timestamp;pressure;altitude;pressure_sealevel;temperature;humidity
45211;BME280;30952;50.102;8.584;2022-10-16T00:03:43;99480.0;;;23.8;42.2
45211;BME280;30952;50.102;8.584;2022-10-16T00:08:43;99480.0;;;23.8;42.2
45211;BME280;30952;50.102;8.584;2022-10-16T00:13:44;99480.0;;;23.8;42.2
45211;BME280;30952;50.102;8.584;2022-10-16T00:18:43;99470.0;;;23.8;42.2
45211;BME280;30952;50.102;8.584;2022-10-16T00:23:43;99490.0;;;23.8;42.2
45211;BME280;30952;50.102;8.584;2022-10-16T00:28:45;99480.0;;;23.8;42.1
45211;BME280;30952;50.102;8.584;2022-10-16T00:33:43;99490.0;;;23.8;42.1
45211;BME280;30952;50.102;8.584;2022-10-16T00:38:45;99470.0;;;23.8;42.2
45211;BME280;30952;50.102;8.584;2022-10-16T00:43:46;99480.0;;;23.6;42.3
45211;BME280;30952;50.102;8.584;2022-10-16T00:48:48;99480.0;;;23.5;42.5
45211;BME280;30952;50.102;8.584;2022-10-16T00:53:46;99480.0;;;23.4;42.5
45211;BME280;30952;50.102;8.584;2022-10-16T00:58:46;99490.0;;;23.4;42.6
45211;BME280;30952;50.102;8.584;2022-10-16T01:03:46;99500.0;;;23.4;42.6
45211;BME280;30952;50.102;8.584;2022-10-16T01:08:57;99510.0;;;23.4;42.7
45211;BME280;30952;50.102;8.584;2022-10-16T01:13:51;99510.0;;;23.3;42.8
45211;BME280;30952;50.102;8.584;2022-10-16T01:18:54;99520.0;;;23.5;42.9
45211;BME280;30952;50.102;8.584;2022-10-16T01:23:54;99510.0;;;23.6;42.8
45211;BME280;30952;50.102;8.584;2022-10-16T01:28:52;99500.0;;;23.6;42.8
45211;BME280;30952;50.102;8.584;2022-10-16T01:33:56;99500.0;;;23.6;42.7
45211;BME280;30952;50.102;8.584;2022-10-16T01:38:50;99490.0;;;23.6;42.7
45211;BME280;30952;50.102;8.584;2022-10-16T01:43:49;99510.0;;;23.6;42.6
45211;BME280;30952;50.102;8.584;2022-10-16T01:48:48;99520.0;;;23.6;42.6
45211;BME280;30952;50.102;8.584;2022-10-16T01:53:52;99520.0;;;23.6;42.6
45211;BME280;30952;50.102;8.584;2022-10-16T01:58:52;99510.0;;;23.6;42.5
45211;BME280;30952;50.102;8.584;2022-10-16T02:03:52;99510.0;;;23.5;42.5
45211;BME280;30952;50.102;8.584;2022-10-16T02:08:49;99520.0;;;23.6;42.5
45211;BME280;30952;50.102;8.584;2022-10-16T02:13:53;99530.0;;;23.5;42.5
45211;BME280;30952;50.102;8.584;2022-10-16T02:18:48;99520.0;;;23.6;42.5
45211;BME280;30952;50.102;8.584;2022-10-16T02:23:52;99530.0;;;23.6;42.5
45211;BME280;30952;50.102;8.584;2022-10-16T02:28:53;99520.0;;;23.6;42.5
45211;BME280;30952;50.102;8.584;2022-10-16T02:33:51;99540.0;;;23.6;42.4
45211;BME280;30952;50.102;8.584;2022-10-16T02:38:50;99540.0;;;23.6;42.3
45211;BME280;30952;50.102;8.584;2022-10-16T02:43:51;99530.0;;;23.6;42.3
45211;BME280;30952;50.102;8.584;2022-10-16T02:48:51;99530.0;;;23.6;42.3
45211;BME280;30952;50.102;8.584;2022-10-16T02:53:50;99540.0;;;23.6;42.2
45211;BME280;30952;50.102;8.584;2022-10-16T02:58:51;99540.0;;;23.6;42.2
45211;BME280;30952;50.102;8.584;2022-10-16T03:03:51;99550.0;;;23.6;42.2
45211;BME280;30952;50.102;8.584;2022-10-16T03:08:50;99540.0;;;23.5;42.2
45211;BME280;30952;50.102;8.584;2022-10-16T03:13:51;99530.0;;;23.6;42.2
45211;BME280;30952;50.102;8.584;2022-10-16T03:18:52;99540.0;;;23.6;42.1
45211;BME280;30952;50.102;8.584;2022-10-16T03:23:51;99550.0;;;23.6;42.1
45211;BME280;30952;50.102;8.584;2022-10-16T03:28:51;99550.0;;;23.6;42.1
45211;BME280;30952;50.102;8.584;2022-10-16T03:33:52;99560.0;;;23.6;42.0
45211;BME280;30952;50.102;8.584;2022-10-16T03:38:53;99560.0;;;23.6;42.0
45211;BME280;30952;50.102;8.584;2022-10-16T03:43:52;99560.0;;;23.6;42.0
45211;BME280;30952;50.102;8.584;2022-10-16T03:48:53;99560.0;;;23.6;42.0
45211;BME280;30952;50.102;8.584;2022-10-16T03:53:53;99570.0;;;23.6;41.9
45211;BME280;30952;50.102;8.584;2022-10-16T03:58:52;99570.0;;;23.6;41.9
45211;BME280;30952;50.102;8.584;2022-10-16T04:03:53;99560.0;;;23.6;41.9
45211;BME280;30952;50.102;8.584;2022-10-16T04:08:54;99570.0;;;23.6;41.8
45211;BME280;30952;50.102;8.584;2022-10-16T04:13:55;99560.0;;;23.6;41.8
45211;BME280;30952;50.102;8.584;2022-10-16T04:18:54;99560.0;;;23.6;41.7
45211;BME280;30952;50.102;8.584;2022-10-16T04:23:54;99580.0;;;23.6;41.7
45211;BME280;30952;50.102;8.584;2022-10-16T04:28:54;99590.0;;;23.6;41.7
45211;BME280;30952;50.102;8.584;2022-10-16T04:33:53;99590.0;;;23.6;41.7
45211;BME280;30952;50.102;8.584;2022-10-16T04:38:53;99590.0;;;23.6;41.7
45211;BME280;30952;50.102;8.584;2022-10-16T04:43:53;99580.0;;;23.6;41.6
45211;BME280;30952;50.102;8.584;2022-10-16T04:48:54;99590.0;;;23.6;41.6
45211;BME280;30952;50.102;8.584;2022-10-16T04:53:55;99580.0;;;23.6;41.6
45211;BME280;30952;50.102;8.584;2022-10-16T04:58:56;99600.0;;;23.6;41.6
45211;BME280;30952;50.102;8.584;2022-10-16T05:03:56;99600.0;;;23.6;41.5
45211;BME280;30952;50.102;8.584;2022-10-16T05:08:55;99600.0;;;23.6;41.5
45211;BME280;30952;50.102;8.584;2022-10-16T05:13:55;99610.0;;;23.6;41.5
45211;BME280;30952;50.102;8.584;2022-10-16T05:18:55;99600.0;;;23.6;41.5
45211;BME280;30952;50.102;8.584;2022-10-16T05:23:55;99600.0;;;23.6;41.5
45211;BME280;30952;50.102;8.584;2022-10-16T05:28:56;99600.0;;;23.6;41.4
45211;BME280;30952;50.102;8.584;2022-10-16T05:33:58;99600.0;;;23.6;41.4
45211;BME280;30952;50.102;8.584;2022-10-16T05:38:58;99600.0;;;23.6;41.4
45211;BME280;30952;50.102;8.584;2022-10-16T05:43:59;99610.0;;;23.6;41.4
45211;BME280;30952;50.102;8.584;2022-10-16T05:48:59;99610.0;;;23.6;41.4
45211;BME280;30952;50.102;8.584;2022-10-16T05:53:59;99610.0;;;23.6;41.3
45211;BME280;30952;50.102;8.584;2022-10-16T05:59:00;99630.0;;;23.5;41.3
45211;BME280;30952;50.102;8.584;2022-10-16T06:04:01;99630.0;;;23.6;41.3
45211;BME280;30952;50.102;8.584;2022-10-16T06:09:02;99640.0;;;23.6;41.3
45211;BME280;30952;50.102;8.584;2022-10-16T06:14:02;99630.0;;;23.5;41.3
45211;BME280;30952;50.102;8.584;2022-10-16T06:19:03;99640.0;;;23.5;41.3
45211;BME280;30952;50.102;8.584;2022-10-16T06:24:02;99650.0;;;23.5;41.2
45211;BME280;30952;50.102;8.584;2022-10-16T06:29:02;99650.0;;;23.6;41.2
45211;BME280;30952;50.102;8.584;2022-10-16T06:34:02;99660.0;;;23.5;41.2
45211;BME280;30952;50.102;8.584;2022-10-16T06:39:02;99650.0;;;23.5;41.2
45211;BME280;30952;50.102;8.584;2022-10-16T06:44:06;99650.0;;;23.5;41.2
45211;BME280;30952;50.102;8.584;2022-10-16T06:49:02;99660.0;;;23.5;41.2
45211;BME280;30952;50.102;8.584;2022-10-16T06:54:01;99670.0;;;23.5;41.2
45211;BME280;30952;50.102;8.584;2022-10-16T06:59:02;99670.0;;;23.5;41.2
45211;BME280;30952;50.102;8.584;2022-10-16T07:04:02;99670.0;;;23.5;41.2
45211;BME280;30952;50.102;8.584;2022-10-16T07:09:04;99680.0;;;23.5;41.1
45211;BME280;30952;50.102;8.584;2022-10-16T07:14:02;99690.0;;;23.5;41.1
45211;BME280;30952;50.102;8.584;2022-10-16T07:19:02;99690.0;;;23.5;41.1
45211;BME280;30952;50.102;8.584;2022-10-16T07:24:05;99710.0;;;23.5;41.1
45211;BME280;30952;50.102;8.584;2022-10-16T07:29:03;99730.0;;;23.5;41.1
45211;BME280;30952;50.102;8.584;2022-10-16T07:34:03;99730.0;;;23.5;41.1
45211;BME280;30952;50.102;8.584;2022-10-16T07:39:03;99730.0;;;23.5;41.1
45211;BME280;30952;50.102;8.584;2022-10-16T07:44:03;99740.0;;;23.6;41.1
45211;BME280;30952;50.102;8.584;2022-10-16T07:49:02;99740.0;;;23.5;41.1
45211;BME280;30952;50.102;8.584;2022-10-16T07:54:02;99750.0;;;23.5;41.0
45211;BME280;30952;50.102;8.584;2022-10-16T07:59:02;99760.0;;;23.5;41.0
45211;BME280;30952;50.102;8.584;2022-10-16T08:04:03;99780.0;;;23.5;41.0
45211;BME280;30952;50.102;8.584;2022-10-16T08:09:04;99780.0;;;23.6;41.0
45211;BME280;30952;50.102;8.584;2022-10-16T08:14:04;99780.0;;;23.5;41.0
45211;BME280;30952;50.102;8.584;2022-10-16T08:19:05;99790.0;;;23.5;41.0
45211;BME280;30952;50.102;8.584;2022-10-16T08:24:05;99800.0;;;23.5;41.0
45211;BME280;30952;50.102;8.584;2022-10-16T08:29:05;99810.0;;;23.5;41.1
45211;BME280;30952;50.102;8.584;2022-10-16T08:34:04;99810.0;;;23.5;41.1
45211;BME280;30952;50.102;8.584;2022-10-16T08:39:05;99810.0;;;23.5;41.1
45211;BME280;30952;50.102;8.584;2022-10-16T08:44:27;99830.0;;;23.4;41.4
